createdAt,value
2023-01-18T00:02:11.286Z,10.23
2023-01-18T00:04:49.218Z,73.38
2023-01-18T00:07:26.780Z,42.38
2023-01-18T00:10:09.526Z,37.50
2023-01-18T00:12:55.186Z,23.58
2023-01-18T00:15:42.202Z,22.08
2023-01-18T00:18:34.895Z,13.52
2023-01-18T00:21:19.059Z,18.60
2023-01-18T00:24:04.548Z,13.25
2023-01-18T00:26:59.716Z,8.23
2023-01-18T00:29:36.219Z,9.68
2023-01-18T00:32:14.332Z,15.18
2023-01-18T00:35:03.576Z,16.23
2023-01-18T00:37:45.972Z,10.95
2023-01-18T00:40:29.014Z,11.57
2023-01-18T00:43:23.041Z,11.10
2023-01-18T00:46:03.968Z,12.65
2023-01-18T00:48:35.859Z,11.73
2023-01-18T00:51:18.843Z,10.82
2023-01-18T00:54:10.066Z,10.10
2023-01-18T00:56:51.244Z,10.38
2023-01-18T00:59:31.772Z,9.80
2023-01-18T01:02:07.168Z,9.00
2023-01-18T01:04:55.719Z,9.60
2023-01-18T01:07:28.617Z,8.55
2023-01-18T01:09:58.956Z,7.22
2023-01-18T01:12:52.572Z,9.53
2023-01-18T01:15:43.772Z,8.07
2023-01-18T01:18:38.769Z,12.82
2023-01-18T01:21:29.708Z,11.68
2023-01-18T01:24:21.012Z,10.32
2023-01-18T01:26:56.871Z,11.07
2023-01-18T01:32:15.572Z,8.43
2023-01-18T01:34:49.462Z,8.82
2023-01-18T01:37:21.518Z,9.80
2023-01-18T01:40:00.588Z,10.40
2023-01-18T01:42:41.238Z,9.30
2023-01-18T01:45:19.108Z,10.13
2023-01-18T01:47:55.985Z,10.23
2023-01-18T01:50:34.076Z,10.57
2023-01-18T01:53:16.687Z,11.05
2023-01-18T01:56:05.047Z,10.40
2023-01-18T01:58:41.848Z,10.50
2023-01-18T02:01:23.164Z,11.43
2023-01-18T02:04:21.494Z,11.43
2023-01-18T02:06:57.982Z,13.63
2023-01-18T02:09:39.455Z,12.40
2023-01-18T02:12:14.841Z,14.02
2023-01-18T02:14:53.576Z,13.20
2023-01-18T02:18:03.711Z,13.10
2023-01-18T02:20:55.554Z,13.98
2023-01-18T02:23:53.685Z,13.10
2023-01-18T02:27:03.328Z,12.90
2023-01-18T02:29:59.751Z,13.15
2023-01-18T02:32:58.436Z,12.77
2023-01-18T02:35:40.105Z,11.93
2023-01-18T02:38:26.938Z,14.10
2023-01-18T02:41:21.252Z,13.38
2023-01-18T02:44:17.987Z,16.05
2023-01-18T02:47:09.405Z,18.48
2023-01-18T02:49:41.438Z,24.77
2023-01-18T02:52:49.776Z,29.85
2023-01-18T02:55:44.165Z,27.65
2023-01-18T02:58:34.618Z,32.70
2023-01-18T03:01:27.053Z,36.38
2023-01-18T03:04:09.767Z,37.95
2023-01-18T03:06:50.287Z,36.92
2023-01-18T03:09:34.530Z,40.63
2023-01-18T03:12:46.787Z,36.65
2023-01-18T03:15:57.557Z,41.10
2023-01-18T03:19:00.845Z,40.90
2023-01-18T03:21:53.917Z,42.13
2023-01-18T03:24:32.439Z,42.23
2023-01-18T03:27:21.610Z,41.83
2023-01-18T03:30:15.968Z,43.60
2023-01-18T03:33:07.270Z,42.00
2023-01-18T03:35:48.963Z,40.97
2023-01-18T03:38:35.741Z,38.38
2023-01-18T03:41:10.588Z,42.20
2023-01-18T03:43:48.673Z,37.95
2023-01-18T03:46:30.855Z,41.13
2023-01-18T03:49:06.590Z,42.20
2023-01-18T03:51:59.745Z,41.08
2023-01-18T03:55:10.368Z,39.30
2023-01-18T03:57:50.361Z,38.55
2023-01-18T04:00:28.714Z,42.63
2023-01-18T04:03:06.498Z,40.10
2023-01-18T04:05:45.889Z,39.47
2023-01-18T04:08:22.738Z,35.63
2023-01-18T04:11:02.093Z,35.80
2023-01-18T04:13:39.757Z,38.30
2023-01-18T04:16:16.933Z,43.53
2023-01-18T04:18:49.029Z,37.25
2023-01-18T04:21:24.118Z,38.63
2023-01-18T04:23:56.920Z,35.03
2023-01-18T04:26:34.563Z,35.25
2023-01-18T04:29:17.886Z,37.40
2023-01-18T04:31:56.045Z,37.15
2023-01-18T04:34:31.792Z,36.08
2023-01-18T04:37:04.521Z,38.15
2023-01-18T04:39:49.929Z,37.65
2023-01-18T04:42:33.861Z,40.50
2023-01-18T04:45:23.116Z,35.70
2023-01-18T04:48:09.270Z,36.60
2023-01-18T04:50:53.021Z,36.60
2023-01-18T04:53:31.460Z,39.75
2023-01-18T04:56:20.722Z,40.28
2023-01-18T04:58:58.327Z,43.45
2023-01-18T05:01:30.998Z,44.35
2023-01-18T05:04:12.262Z,41.10
2023-01-18T05:06:53.391Z,42.15
2023-01-18T05:09:38.890Z,43.55
2023-01-18T05:12:22.037Z,31.92
2023-01-18T05:15:02.834Z,45.22
2023-01-18T05:17:43.345Z,41.35
2023-01-18T05:20:21.673Z,45.38
2023-01-18T05:23:02.079Z,40.45
2023-01-18T05:25:53.913Z,44.05
2023-01-18T05:31:16.217Z,43.58
2023-01-18T05:34:02.304Z,44.70
2023-01-18T05:36:40.746Z,49.33
2023-01-18T05:39:23.121Z,43.90
2023-01-18T05:42:03.879Z,36.75
2023-01-18T05:44:44.051Z,35.05
2023-01-18T05:47:30.767Z,31.92
2023-01-18T05:52:48.369Z,27.92
2023-01-18T05:55:25.468Z,29.58
2023-01-18T05:58:04.103Z,28.52
2023-01-18T06:00:42.156Z,31.15
2023-01-18T06:03:26.794Z,26.45
2023-01-18T06:06:12.059Z,24.65
2023-01-18T06:08:50.683Z,24.77
2023-01-18T06:11:35.342Z,24.45
2023-01-18T06:14:12.831Z,24.02
2023-01-18T06:16:58.599Z,30.17
2023-01-18T06:19:39.525Z,27.58
2023-01-18T06:22:18.151Z,34.85
2023-01-18T06:24:53.323Z,39.65
2023-01-18T06:27:41.961Z,35.05
2023-01-18T06:30:22.727Z,32.38
2023-01-18T06:33:04.912Z,36.17
2023-01-18T06:35:46.749Z,30.35
2023-01-18T06:38:30.721Z,26.33
2023-01-18T06:41:09.701Z,23.08
2023-01-18T06:43:52.637Z,24.75
2023-01-18T06:46:32.901Z,22.07
2023-01-18T06:49:16.444Z,21.70
2023-01-18T06:51:54.804Z,20.15
2023-01-18T06:54:34.533Z,22.90
2023-01-18T06:57:32.012Z,24.30
2023-01-18T07:00:18.478Z,23.33
2023-01-18T07:03:01.497Z,25.15
2023-01-18T07:05:45.510Z,25.43
2023-01-18T07:08:24.117Z,19.35
2023-01-18T07:11:04.304Z,22.42
2023-01-18T07:13:52.490Z,17.50
2023-01-18T07:16:32.696Z,18.45
2023-01-18T07:19:21.157Z,18.15
2023-01-18T07:22:04.928Z,16.58
2023-01-18T07:24:46.353Z,16.92
2023-01-18T07:27:27.747Z,16.23
2023-01-18T07:30:11.190Z,13.82
2023-01-18T07:32:59.357Z,13.60
2023-01-18T07:35:37.886Z,14.75
2023-01-18T07:38:24.151Z,12.57
2023-01-18T07:41:05.029Z,12.88
2023-01-18T07:43:45.737Z,13.63
2023-01-18T07:46:20.879Z,11.45
2023-01-18T07:48:53.893Z,10.98
2023-01-18T07:51:35.152Z,7.72
2023-01-18T07:54:21.884Z,11.13
2023-01-18T07:57:00.746Z,7.78
2023-01-18T07:59:42.184Z,7.82
2023-01-18T08:02:28.978Z,6.82
2023-01-18T08:05:10.904Z,9.00
2023-01-18T08:07:47.451Z,8.38
2023-01-18T08:10:30.703Z,8.20
2023-01-18T08:13:17.427Z,10.05
2023-01-18T08:15:58.994Z,10.88
2023-01-18T08:18:37.706Z,10.70
2023-01-18T08:21:18.998Z,11.02
2023-01-18T08:24:03.199Z,10.25
2023-01-18T08:26:44.056Z,11.60
2023-01-18T08:29:18.829Z,10.30
2023-01-18T08:32:07.562Z,11.27
2023-01-18T08:34:45.647Z,12.75
2023-01-18T08:37:28.968Z,11.00
2023-01-18T08:40:07.176Z,9.68
2023-01-18T08:42:52.715Z,7.90
2023-01-18T08:45:35.057Z,7.85
2023-01-18T08:48:10.916Z,7.63
2023-01-18T08:50:51.854Z,8.40
2023-01-18T08:53:35.110Z,7.00
2023-01-18T08:56:21.785Z,7.93
2023-01-18T08:59:02.644Z,7.03
2023-01-18T09:01:42.871Z,8.48
2023-01-18T09:04:15.738Z,6.55
2023-01-18T09:06:57.012Z,6.10
2023-01-18T09:09:32.075Z,6.43
2023-01-18T09:12:07.909Z,6.07
2023-01-18T09:14:48.682Z,7.85
2023-01-18T09:17:27.125Z,6.68
2023-01-18T09:20:09.722Z,7.72
2023-01-18T09:22:47.998Z,10.00
2023-01-18T09:25:28.690Z,9.40
2023-01-18T09:28:03.698Z,8.55
2023-01-18T09:30:41.855Z,7.32
2023-01-18T09:33:20.467Z,10.23
2023-01-18T09:36:02.085Z,8.65
2023-01-18T09:38:40.301Z,8.35
2023-01-18T09:41:27.873Z,7.82
2023-01-18T09:44:16.040Z,7.35
2023-01-18T09:47:01.261Z,7.22
2023-01-18T09:49:52.244Z,7.45
2023-01-18T09:52:51.719Z,7.82
2023-01-18T09:55:45.415Z,9.57
2023-01-18T09:58:47.366Z,10.50
2023-01-18T10:01:26.221Z,10.43
2023-01-18T10:04:15.323Z,12.43
2023-01-18T10:07:05.106Z,12.02
2023-01-18T10:09:56.028Z,11.50
2023-01-18T10:12:46.977Z,12.02
2023-01-18T10:15:49.326Z,12.20
2023-01-18T10:18:22.984Z,14.00
2023-01-18T10:21:22.014Z,12.98
2023-01-18T10:24:42.185Z,15.02
2023-01-18T10:27:55.338Z,14.70
2023-01-18T10:30:50.685Z,14.23
2023-01-18T10:33:29.025Z,12.70
2023-01-18T10:36:11.777Z,14.38
2023-01-18T10:38:44.997Z,13.25
2023-01-18T10:41:35.483Z,10.13
2023-01-18T10:44:18.736Z,12.25
2023-01-18T10:47:02.944Z,11.10
2023-01-18T10:49:51.463Z,12.70
2023-01-18T10:52:35.697Z,12.88
2023-01-18T10:55:16.067Z,10.73
2023-01-18T10:58:02.369Z,10.73
2023-01-18T11:00:43.039Z,11.40
2023-01-18T11:03:22.729Z,8.85
2023-01-18T11:06:03.526Z,8.82
2023-01-18T11:08:45.322Z,7.85
2023-01-18T11:11:45.416Z,7.53
2023-01-18T11:14:39.788Z,8.18
2023-01-18T11:17:17.436Z,8.02
2023-01-18T11:20:19.189Z,8.13
2023-01-18T11:23:21.701Z,7.00
2023-01-18T11:26:19.549Z,7.15
2023-01-18T11:29:07.018Z,8.50
2023-01-18T11:32:05.965Z,8.82
2023-01-18T11:34:49.086Z,7.90
2023-01-18T11:37:40.069Z,6.70
2023-01-18T11:41:07.948Z,8.82
2023-01-18T11:43:49.618Z,7.97
2023-01-18T11:46:28.480Z,11.27
2023-01-18T11:49:25.317Z,11.35
2023-01-18T11:52:12.784Z,10.70
2023-01-18T11:54:57.492Z,8.07
2023-01-18T11:57:35.227Z,10.85
2023-01-18T12:00:19.030Z,9.30
2023-01-18T12:03:27.293Z,9.20
2023-01-18T12:06:46.822Z,8.88
2023-01-18T12:09:30.713Z,8.45
2023-01-18T12:15:32.661Z,7.32
2023-01-18T12:18:34.826Z,8.35
2023-01-18T12:21:14.549Z,7.38
2023-01-18T12:24:12.421Z,6.78
2023-01-18T12:27:00.440Z,7.50
2023-01-18T12:29:59.911Z,7.82
2023-01-18T12:32:51.954Z,7.68
2023-01-18T12:35:53.313Z,11.27
2023-01-18T12:38:35.097Z,11.65
2023-01-18T12:41:58.573Z,7.35
2023-01-18T12:44:47.916Z,6.78
2023-01-18T12:47:55.702Z,10.00
2023-01-18T12:50:36.816Z,6.53
2023-01-18T12:53:35.617Z,6.63
2023-01-18T12:56:20.260Z,5.90
2023-01-18T12:59:00.459Z,6.15
2023-01-18T13:01:40.090Z,7.30
2023-01-18T13:04:30.247Z,8.25
2023-01-18T13:07:14.677Z,6.07
2023-01-18T13:10:04.945Z,7.57
2023-01-18T13:12:40.666Z,6.40
2023-01-18T13:15:29.928Z,6.45
2023-01-18T13:18:23.854Z,10.00
2023-01-18T13:21:10.586Z,6.32
2023-01-18T13:24:03.753Z,7.70
2023-01-18T13:26:40.412Z,11.98
2023-01-18T13:29:25.851Z,6.15
2023-01-18T13:32:02.665Z,7.13
2023-01-18T13:34:47.962Z,7.32
2023-01-18T13:37:42.903Z,10.10
2023-01-18T13:40:38.078Z,12.38
2023-01-18T13:43:37.935Z,7.35
2023-01-18T13:46:30.441Z,7.47
2023-01-18T13:49:43.741Z,5.03
2023-01-18T13:52:31.528Z,5.25
2023-01-18T13:55:09.326Z,5.93
2023-01-18T13:58:04.301Z,5.25
2023-01-18T14:00:38.883Z,5.63
2023-01-18T14:03:31.422Z,6.07
2023-01-18T14:06:17.760Z,5.40
2023-01-18T14:09:09.584Z,6.10
2023-01-18T14:11:45.991Z,5.68
2023-01-18T14:14:35.751Z,5.45
2023-01-18T14:17:25.470Z,12.07
2023-01-18T14:20:46.713Z,8.10
2023-01-18T14:23:49.337Z,11.52
2023-01-18T14:26:22.532Z,11.52
2023-01-18T14:29:24.284Z,17.52
2023-01-18T14:32:09.257Z,14.50
2023-01-18T14:34:45.752Z,15.43
2023-01-18T14:37:34.929Z,11.52
2023-01-18T14:40:23.244Z,10.73
2023-01-18T14:43:03.648Z,17.02
2023-01-18T14:45:40.988Z,17.17
2023-01-18T14:48:27.506Z,15.35
2023-01-18T14:51:12.675Z,13.43
2023-01-18T14:53:54.667Z,12.50
2023-01-18T14:56:41.562Z,9.85
2023-01-18T14:59:22.905Z,13.98
2023-01-18T15:04:39.030Z,13.52
2023-01-18T15:07:15.998Z,24.83
2023-01-18T15:09:51.088Z,34.47
2023-01-18T15:12:34.439Z,44.70
2023-01-18T15:15:25.168Z,39.90
2023-01-18T15:18:14.379Z,64.50
2023-01-18T15:21:08.253Z,94.15
2023-01-18T15:23:42.995Z,89.90
2023-01-18T15:26:35.765Z,94.35
2023-01-18T15:29:23.906Z,80.95
2023-01-18T15:31:59.752Z,76.03
2023-01-18T15:34:39.376Z,57.63
2023-01-18T15:37:16.750Z,38.47
2023-01-18T15:39:50.594Z,37.33
2023-01-18T15:42:27.419Z,37.60
2023-01-18T15:45:02.155Z,30.88
2023-01-18T15:47:40.568Z,27.70
2023-01-18T15:50:21.658Z,34.88
2023-01-18T15:53:11.675Z,27.75
2023-01-18T15:55:56.721Z,25.67
2023-01-18T15:58:41.458Z,31.60
2023-01-18T16:01:37.715Z,30.98
2023-01-18T16:04:31.016Z,29.83
2023-01-18T16:07:36.167Z,49.75
2023-01-18T16:10:33.264Z,59.17
2023-01-18T16:13:34.042Z,60.97
2023-01-18T16:16:16.168Z,58.22
2023-01-18T16:18:54.757Z,62.17
2023-01-18T16:21:50.155Z,59.50
2023-01-18T16:24:28.530Z,55.88
2023-01-18T16:27:28.202Z,63.35
2023-01-18T16:30:05.635Z,91.15
2023-01-18T16:32:42.642Z,108.13
2023-01-18T16:35:18.228Z,144.30
2023-01-18T16:37:53.965Z,132.65
2023-01-18T16:40:30.206Z,132.60
2023-01-18T16:43:28.971Z,129.00
2023-01-18T16:46:04.715Z,89.03
2023-01-18T16:48:41.569Z,93.32
2023-01-18T16:51:26.105Z,84.82
2023-01-18T16:53:59.356Z,59.55
2023-01-18T16:56:39.940Z,51.42
2023-01-18T16:59:27.633Z,55.88
2023-01-18T17:02:03.534Z,48.85
2023-01-18T17:04:42.695Z,44.97
2023-01-18T17:07:26.735Z,43.60
2023-01-18T17:10:01.883Z,54.53
2023-01-18T17:12:39.135Z,74.75
2023-01-18T17:15:15.892Z,64.03
2023-01-18T17:17:46.087Z,59.47
2023-01-18T17:20:31.502Z,48.65
2023-01-18T17:23:06.781Z,43.50
2023-01-18T17:25:45.427Z,34.92
2023-01-18T17:28:27.753Z,31.08
2023-01-18T17:31:00.854Z,29.23
2023-01-18T17:33:36.221Z,26.33
2023-01-18T17:36:11.054Z,29.23
2023-01-18T17:38:52.089Z,31.65
2023-01-18T17:41:27.774Z,45.22
2023-01-18T17:44:08.458Z,45.60
2023-01-18T17:46:43.463Z,55.83
2023-01-18T17:49:21.825Z,83.82
2023-01-18T17:51:56.739Z,76.78
2023-01-18T17:54:35.061Z,85.28
2023-01-18T17:57:09.139Z,107.60
2023-01-18T17:59:48.717Z,77.07
2023-01-18T18:02:24.484Z,79.55
2023-01-18T18:04:57.164Z,79.15
2023-01-18T18:07:35.867Z,79.28
2023-01-18T18:10:09.082Z,99.45
2023-01-18T18:12:39.277Z,84.75
2023-01-18T18:15:11.735Z,55.42
2023-01-18T18:17:49.709Z,52.38
2023-01-18T18:20:23.583Z,49.80
2023-01-18T18:23:01.984Z,55.28
2023-01-18T18:25:39.214Z,49.33
2023-01-18T18:28:14.689Z,41.88
2023-01-18T18:30:54.772Z,44.53
2023-01-18T18:33:24.727Z,46.85
2023-01-18T18:36:00.244Z,37.40
2023-01-18T18:38:38.212Z,39.63
2023-01-18T18:41:15.623Z,38.38
2023-01-18T18:43:53.696Z,32.65
2023-01-18T18:46:31.214Z,37.90
2023-01-18T18:49:06.485Z,37.85
2023-01-18T18:51:41.613Z,36.42
2023-01-18T18:54:18.320Z,38.33
2023-01-18T18:56:53.792Z,43.63
2023-01-18T18:59:24.749Z,57.60
2023-01-18T19:02:00.540Z,63.63
2023-01-18T19:04:35.542Z,51.45
2023-01-18T19:07:13.139Z,50.65
2023-01-18T19:09:52.973Z,49.90
2023-01-18T19:12:22.943Z,53.65
2023-01-18T19:14:55.264Z,55.15
2023-01-18T19:17:35.547Z,48.05
2023-01-18T19:20:14.057Z,45.35
2023-01-18T19:22:52.955Z,48.50
2023-01-18T19:25:30.840Z,54.33
2023-01-18T19:28:11.862Z,50.22
2023-01-18T19:31:00.911Z,43.70
2023-01-18T19:33:42.714Z,49.22
2023-01-18T19:36:24.936Z,49.97
2023-01-18T19:39:00.167Z,45.10
2023-01-18T19:41:38.336Z,52.53
2023-01-18T19:44:13.229Z,45.85
2023-01-18T19:46:54.124Z,45.08
2023-01-18T19:49:35.204Z,45.33
2023-01-18T19:52:12.819Z,52.65
2023-01-18T19:54:50.383Z,47.00
2023-01-18T19:57:33.239Z,50.22
2023-01-18T20:00:19.609Z,45.63
2023-01-18T20:05:32.125Z,46.85
2023-01-18T20:08:09.689Z,50.88
2023-01-18T20:10:50.101Z,49.45
2023-01-18T20:13:30.158Z,49.90
2023-01-18T20:16:05.131Z,51.35
2023-01-18T20:18:46.470Z,59.88
2023-01-18T20:21:25.279Z,52.08
2023-01-18T20:24:05.864Z,57.35
2023-01-18T20:26:47.232Z,52.40
2023-01-18T20:29:33.895Z,49.38
2023-01-18T20:32:16.263Z,50.25
2023-01-18T20:34:52.088Z,47.25
2023-01-18T20:37:51.404Z,49.58
2023-01-18T20:40:34.839Z,44.00
2023-01-18T20:43:16.506Z,51.28
2023-01-18T20:46:14.752Z,45.20
2023-01-18T20:48:53.502Z,43.95
2023-01-18T20:51:34.397Z,44.13
2023-01-18T20:54:12.152Z,49.55
2023-01-18T20:56:49.812Z,44.97
2023-01-18T20:59:33.248Z,47.78
2023-01-18T21:02:15.824Z,34.90
2023-01-18T21:04:54.283Z,51.38
2023-01-18T21:07:32.764Z,44.72
2023-01-18T21:10:11.029Z,53.50
2023-01-18T21:12:52.245Z,47.85
2023-01-18T21:15:32.909Z,47.03
2023-01-18T21:18:17.209Z,41.70
2023-01-18T21:21:13.707Z,39.67
2023-01-18T21:24:02.195Z,35.70
2023-01-18T21:26:58.744Z,44.25
2023-01-18T21:32:25.366Z,34.72
2023-01-18T21:35:04.345Z,36.20
2023-01-18T21:38:06.100Z,36.45
2023-01-18T21:40:49.821Z,35.72
2023-01-18T21:43:46.267Z,38.90
2023-01-18T21:46:24.857Z,37.55
2023-01-18T21:49:43.016Z,34.42
2023-01-18T21:52:51.447Z,28.55
2023-01-18T21:55:40.356Z,29.30
2023-01-18T21:58:36.258Z,30.90
2023-01-18T22:01:22.886Z,30.10
2023-01-18T22:04:19.225Z,31.52
2023-01-18T22:07:00.715Z,31.10
2023-01-18T22:10:02.880Z,35.53
2023-01-18T22:12:45.160Z,26.90
2023-01-18T22:15:23.231Z,35.00
2023-01-18T22:17:59.575Z,30.52
2023-01-18T22:23:17.893Z,27.20
2023-01-18T22:26:03.017Z,30.92
2023-01-18T22:28:38.829Z,27.80
2023-01-18T22:31:29.910Z,25.40
2023-01-18T22:34:09.995Z,25.05
2023-01-18T22:36:52.560Z,26.20
2023-01-18T22:39:36.121Z,25.40
2023-01-18T22:42:23.235Z,27.63
2023-01-18T22:45:07.374Z,29.83
2023-01-18T22:47:42.953Z,24.77
2023-01-18T22:50:22.968Z,24.33
2023-01-18T22:53:04.446Z,27.05
2023-01-18T22:55:43.470Z,27.55
2023-01-18T22:58:27.407Z,27.90
2023-01-18T23:01:16.183Z,26.08
2023-01-18T23:04:11.541Z,27.45
2023-01-18T23:06:52.355Z,25.30
2023-01-18T23:12:19.708Z,25.00
2023-01-18T23:15:10.106Z,30.63
2023-01-18T23:17:45.955Z,27.27
2023-01-18T23:20:27.599Z,28.60
2023-01-18T23:23:05.446Z,28.10
2023-01-18T23:25:51.010Z,30.98
2023-01-18T23:28:48.112Z,27.23
2023-01-18T23:31:28.780Z,25.17
2023-01-18T23:34:08.943Z,25.23
2023-01-18T23:36:52.772Z,29.50
2023-01-18T23:42:44.433Z,22.02
2023-01-18T23:45:38.146Z,25.40
2023-01-18T23:48:35.056Z,23.60
2023-01-18T23:51:29.681Z,22.20
2023-01-18T23:54:16.981Z,21.52
2023-01-18T23:57:04.012Z,21.58
2023-01-18T23:59:42.042Z,20.50
